createdAt,value
2018-07-21T00:02:26.443Z,10.10
2018-07-21T00:04:55.267Z,11.23
2018-07-21T00:07:24.479Z,10.23
2018-07-21T00:09:54.070Z,8.80
2018-07-21T00:12:23.225Z,9.23
2018-07-21T00:14:53.080Z,9.53
2018-07-21T00:17:23.726Z,9.67
2018-07-21T00:19:52.558Z,9.50
2018-07-21T00:22:23.310Z,8.23
2018-07-21T00:24:52.683Z,7.17
2018-07-21T00:27:22.005Z,8.00
2018-07-21T00:29:51.096Z,7.40
2018-07-21T00:32:20.314Z,7.57
2018-07-21T00:34:49.933Z,6.70
2018-07-21T00:37:19.840Z,5.70
2018-07-21T00:39:50.454Z,7.67
2018-07-21T00:42:23.371Z,6.53
2018-07-21T00:44:52.659Z,7.47
2018-07-21T00:47:22.019Z,6.13
2018-07-21T00:49:51.609Z,6.50
2018-07-21T00:52:20.788Z,6.67
2018-07-21T00:54:49.844Z,6.67
2018-07-21T00:57:18.974Z,7.33
2018-07-21T00:59:48.240Z,7.43
2018-07-21T01:02:17.422Z,7.90
2018-07-21T01:04:46.216Z,9.40
2018-07-21T01:07:15.675Z,9.13
2018-07-21T01:09:45.290Z,9.70
2018-07-21T01:12:14.764Z,8.33
2018-07-21T01:14:45.712Z,7.40
2018-07-21T01:17:15.310Z,10.53
2018-07-21T01:19:44.219Z,10.03
2018-07-21T01:22:13.166Z,12.27
2018-07-21T01:24:41.925Z,11.20
2018-07-21T01:27:11.734Z,10.00
2018-07-21T01:29:41.104Z,9.47
2018-07-21T01:32:10.117Z,9.90
2018-07-21T01:34:39.611Z,10.47
2018-07-21T01:37:09.204Z,10.73
2018-07-21T01:39:38.097Z,8.47
2018-07-21T01:42:07.185Z,8.73
2018-07-21T01:44:36.340Z,10.20
2018-07-21T01:47:05.381Z,8.83
2018-07-21T01:49:34.561Z,9.93
2018-07-21T01:52:03.341Z,9.30
2018-07-21T01:54:32.647Z,10.80
2018-07-21T01:57:01.960Z,10.07
2018-07-21T01:59:31.166Z,9.63
2018-07-21T02:02:00.208Z,8.03
2018-07-21T02:04:29.268Z,10.23
2018-07-21T02:06:58.312Z,10.20
2018-07-21T02:09:27.450Z,9.40
2018-07-21T02:11:57.495Z,10.23
2018-07-21T02:14:26.681Z,10.40
2018-07-21T02:16:55.825Z,9.40
2018-07-21T02:19:25.350Z,8.20
2018-07-21T02:21:54.733Z,8.90
2018-07-21T02:24:23.803Z,9.90
2018-07-21T02:26:52.804Z,10.20
2018-07-21T02:29:22.844Z,10.87
2018-07-21T02:31:54.794Z,9.90
2018-07-21T02:34:23.938Z,9.23
2018-07-21T02:36:52.927Z,8.10
2018-07-21T02:39:22.009Z,8.37
2018-07-21T02:41:51.780Z,7.60
2018-07-21T02:44:20.933Z,8.80
2018-07-21T02:46:50.204Z,7.63
2018-07-21T02:49:19.429Z,7.53
2018-07-21T02:51:48.508Z,8.43
2018-07-21T02:54:17.332Z,7.87
2018-07-21T02:56:46.172Z,9.73
2018-07-21T02:59:15.331Z,10.97
2018-07-21T03:01:45.410Z,12.73
2018-07-21T03:04:14.690Z,9.60
2018-07-21T03:06:43.664Z,8.13
2018-07-21T03:09:14.029Z,8.10
2018-07-21T03:11:42.709Z,7.90
2018-07-21T03:14:11.894Z,7.30
2018-07-21T03:16:41.186Z,8.20
2018-07-21T03:19:10.193Z,8.97
2018-07-21T03:21:39.276Z,7.17
2018-07-21T03:24:08.318Z,7.07
2018-07-21T03:26:37.388Z,8.03
2018-07-21T03:29:07.678Z,7.57
2018-07-21T03:31:37.105Z,8.10
2018-07-21T03:34:06.210Z,7.70
2018-07-21T03:36:35.529Z,6.10
2018-07-21T03:39:06.988Z,7.97
2018-07-21T03:41:36.958Z,8.37
2018-07-21T03:44:05.995Z,6.90
2018-07-21T03:46:35.639Z,6.63
2018-07-21T03:49:04.730Z,8.17
2018-07-21T03:51:33.892Z,9.00
2018-07-21T03:54:03.104Z,8.37
2018-07-21T03:56:32.343Z,8.13
2018-07-21T03:59:01.504Z,7.73
2018-07-21T04:01:30.602Z,7.90
2018-07-21T04:04:01.405Z,8.00
2018-07-21T04:06:31.375Z,8.20
2018-07-21T04:09:00.557Z,8.90
2018-07-21T04:11:29.697Z,7.73
2018-07-21T04:13:59.308Z,8.17
2018-07-21T04:16:28.382Z,8.47
2018-07-21T04:18:57.193Z,8.67
2018-07-21T04:21:25.657Z,7.50
2018-07-21T04:23:54.775Z,8.23
2018-07-21T04:26:23.968Z,7.03
2018-07-21T04:28:53.354Z,8.20
2018-07-21T04:31:22.355Z,7.23
2018-07-21T04:33:52.476Z,8.30
2018-07-21T04:36:22.045Z,8.27
2018-07-21T04:38:51.190Z,8.70
2018-07-21T04:41:20.266Z,7.70
2018-07-21T04:43:49.474Z,7.13
2018-07-21T04:46:18.765Z,8.30
2018-07-21T04:48:47.885Z,9.03
2018-07-21T04:51:17.158Z,10.03
2018-07-21T04:53:46.160Z,9.90
2018-07-21T04:56:15.494Z,9.83
2018-07-21T04:58:44.495Z,8.83
2018-07-21T05:01:13.659Z,10.40
2018-07-21T05:03:42.969Z,11.13
2018-07-21T05:06:11.893Z,9.33
2018-07-21T05:08:41.023Z,9.40
2018-07-21T05:11:09.945Z,10.83
2018-07-21T05:13:38.937Z,9.97
2018-07-21T05:16:08.212Z,10.90
2018-07-21T05:18:39.823Z,10.07
2018-07-21T05:21:09.228Z,9.73
2018-07-21T05:23:38.533Z,10.30
2018-07-21T05:26:07.239Z,8.80
2018-07-21T05:28:36.854Z,8.97
2018-07-21T05:31:06.028Z,8.90
2018-07-21T05:33:36.870Z,10.53
2018-07-21T05:36:09.558Z,14.57
2018-07-21T05:38:38.679Z,14.07
2018-07-21T05:41:11.127Z,13.30
2018-07-21T05:43:40.450Z,11.70
2018-07-21T05:46:09.708Z,12.30
2018-07-21T05:48:38.867Z,10.93
2018-07-21T05:51:09.340Z,12.77
2018-07-21T05:53:38.607Z,13.23
2018-07-21T05:56:08.579Z,11.00
2018-07-21T05:58:37.730Z,12.63
2018-07-21T06:01:06.601Z,11.83
2018-07-21T06:03:35.630Z,12.00
2018-07-21T06:06:05.880Z,10.27
2018-07-21T06:08:35.888Z,9.77
2018-07-21T06:11:05.016Z,12.53
2018-07-21T06:13:34.074Z,10.53
2018-07-21T06:16:03.143Z,13.03
2018-07-21T06:18:33.266Z,11.50
2018-07-21T06:21:02.382Z,17.13
2018-07-21T06:23:31.421Z,13.20
2018-07-21T06:26:00.621Z,12.70
2018-07-21T06:28:29.734Z,14.37
2018-07-21T06:30:59.405Z,12.60
2018-07-21T06:33:29.199Z,12.53
2018-07-21T06:35:58.488Z,12.33
2018-07-21T06:38:28.004Z,11.53
2018-07-21T06:40:57.240Z,9.77
2018-07-21T06:43:26.291Z,10.97
2018-07-21T06:45:55.369Z,13.43
2018-07-21T06:48:24.957Z,11.20
2018-07-21T06:50:55.521Z,9.83
2018-07-21T06:53:24.749Z,9.17
2018-07-21T06:55:53.830Z,9.80
2018-07-21T06:58:26.383Z,10.60
2018-07-21T07:00:56.270Z,10.57
2018-07-21T07:03:25.439Z,8.47
2018-07-21T07:05:54.470Z,10.60
2018-07-21T07:08:25.789Z,9.45
2018-07-21T07:10:54.689Z,10.50
2018-07-21T07:13:23.753Z,9.20
2018-07-21T07:15:53.029Z,8.73
2018-07-21T07:18:22.164Z,8.75
2018-07-21T07:20:52.659Z,8.73
2018-07-21T07:23:21.907Z,7.17
2018-07-21T07:25:51.079Z,8.18
2018-07-21T07:28:20.212Z,7.73
2018-07-21T07:30:49.690Z,9.78
2018-07-21T07:33:18.768Z,7.47
2018-07-21T07:35:48.322Z,8.93
2018-07-21T07:38:20.244Z,8.78
2018-07-21T07:40:49.457Z,9.28
2018-07-21T07:43:20.185Z,8.28
2018-07-21T07:45:50.339Z,7.45
2018-07-21T07:48:19.459Z,7.10
2018-07-21T07:50:48.735Z,6.70
2018-07-21T07:53:18.040Z,7.83
2018-07-21T07:55:47.364Z,6.83
2018-07-21T07:58:16.930Z,6.67
2018-07-21T08:00:46.502Z,8.30
2018-07-21T08:03:15.743Z,6.95
2018-07-21T08:05:45.669Z,7.60
2018-07-21T08:08:15.398Z,6.35
2018-07-21T08:10:45.603Z,7.25
2018-07-21T08:13:15.792Z,8.57
2018-07-21T08:15:46.188Z,7.00
2018-07-21T08:18:15.122Z,7.90
2018-07-21T08:20:44.617Z,7.80
2018-07-21T08:23:13.784Z,8.45
2018-07-21T08:25:43.541Z,7.50
2018-07-21T08:28:14.143Z,7.47
2018-07-21T08:30:44.528Z,8.60
2018-07-21T08:33:14.367Z,8.70
2018-07-21T08:35:44.139Z,10.65
2018-07-21T08:38:13.383Z,12.23
2018-07-21T08:40:42.638Z,9.63
2018-07-21T08:43:12.214Z,10.18
2018-07-21T08:45:41.655Z,9.43
2018-07-21T08:48:11.852Z,9.23
2018-07-21T08:50:41.175Z,9.70
2018-07-21T08:53:10.475Z,10.15
2018-07-21T08:55:39.370Z,9.20
2018-07-21T08:58:08.325Z,8.73
2018-07-21T09:00:37.655Z,9.58
2018-07-21T09:03:06.917Z,9.10
2018-07-21T09:05:35.837Z,9.20
2018-07-21T09:08:05.935Z,7.95
2018-07-21T09:10:35.068Z,8.58
2018-07-21T09:13:04.481Z,10.03
2018-07-21T09:15:33.748Z,9.10
2018-07-21T09:18:04.362Z,7.80
2018-07-21T09:20:34.093Z,8.03
2018-07-21T09:23:02.941Z,6.75
2018-07-21T09:25:32.585Z,6.08
2018-07-21T09:28:01.476Z,6.92
2018-07-21T09:30:30.316Z,6.10
2018-07-21T09:33:02.587Z,7.05
2018-07-21T09:35:37.612Z,9.00
2018-07-21T09:38:07.172Z,9.38
2018-07-21T09:40:36.488Z,7.40
2018-07-21T09:43:09.879Z,7.45
2018-07-21T09:45:39.214Z,7.03
2018-07-21T09:48:08.719Z,6.25
2018-07-21T09:50:39.326Z,6.90
2018-07-21T09:53:08.469Z,6.95
2018-07-21T09:55:37.652Z,6.53
2018-07-21T09:58:06.930Z,6.42
2018-07-21T10:00:41.417Z,6.58
2018-07-21T10:03:10.662Z,6.40
2018-07-21T10:05:39.223Z,9.78
2018-07-21T10:08:10.112Z,9.20
2018-07-21T10:10:39.190Z,46.00
2018-07-21T10:13:08.308Z,48.40
2018-07-21T10:15:37.655Z,14.13
2018-07-21T10:18:07.142Z,13.50
2018-07-21T10:20:36.729Z,23.42
2018-07-21T10:23:06.285Z,20.25
2018-07-21T10:25:40.600Z,11.73
2018-07-21T10:28:15.222Z,8.18
2018-07-21T10:30:45.208Z,17.85
2018-07-21T10:33:14.606Z,42.73
2018-07-21T10:35:44.016Z,86.75
2018-07-21T10:38:13.428Z,123.18
2018-07-21T10:40:42.704Z,18.82
2018-07-21T10:43:12.120Z,9.53
2018-07-21T10:45:42.981Z,20.65
2018-07-21T10:48:12.231Z,13.80
2018-07-21T10:50:41.836Z,7.58
2018-07-21T10:53:12.533Z,7.62
2018-07-21T10:55:41.568Z,8.93
2018-07-21T10:58:10.485Z,16.05
2018-07-21T11:00:39.330Z,10.40
2018-07-21T11:03:08.169Z,7.03
2018-07-21T11:05:37.391Z,5.55
2018-07-21T11:08:06.650Z,9.08
2018-07-21T11:10:36.398Z,11.60
2018-07-21T11:13:07.135Z,5.67
2018-07-21T11:15:39.190Z,5.87
2018-07-21T11:18:08.769Z,5.90
2018-07-21T11:20:38.569Z,5.60
2018-07-21T11:23:07.768Z,5.40
2018-07-21T11:25:39.189Z,5.50
2018-07-21T11:28:09.075Z,6.45
2018-07-21T11:30:41.273Z,5.58
2018-07-21T11:33:10.346Z,6.08
2018-07-21T11:35:41.239Z,7.45
2018-07-21T11:38:10.557Z,5.60
2018-07-21T11:40:44.653Z,6.33
2018-07-21T11:43:16.754Z,7.12
2018-07-21T11:45:46.187Z,5.70
2018-07-21T11:48:15.347Z,5.70
2018-07-21T11:50:44.792Z,5.15
2018-07-21T11:53:14.010Z,5.33
2018-07-21T11:55:43.218Z,6.40
2018-07-21T11:58:12.692Z,5.95
2018-07-21T12:00:42.901Z,5.10
2018-07-21T12:03:13.173Z,5.70
2018-07-21T12:05:43.314Z,5.60
2018-07-21T12:08:12.737Z,5.10
2018-07-21T12:13:19.359Z,6.00
2018-07-21T12:15:48.768Z,5.35
2018-07-21T12:18:17.937Z,5.25
2018-07-21T12:20:48.168Z,5.17
2018-07-21T12:23:18.403Z,5.28
2018-07-21T12:25:47.734Z,5.50
2018-07-21T12:28:17.121Z,6.40
2018-07-21T12:30:46.839Z,5.37
2018-07-21T12:33:15.941Z,5.92
2018-07-21T12:35:45.785Z,5.78
2018-07-21T12:38:15.224Z,5.92
2018-07-21T12:40:44.074Z,5.95
2018-07-21T12:43:13.185Z,5.33
2018-07-21T12:45:42.484Z,5.45
2018-07-21T12:48:11.598Z,7.67
2018-07-21T12:50:40.432Z,5.53
2018-07-21T12:53:10.189Z,6.03
2018-07-21T12:55:40.978Z,6.00
2018-07-21T12:58:14.219Z,5.37
2018-07-21T13:00:43.761Z,5.62
2018-07-21T13:03:13.621Z,6.15
2018-07-21T13:05:43.757Z,4.83
2018-07-21T13:08:16.087Z,5.08
2018-07-21T13:10:48.404Z,5.75
2018-07-21T13:13:19.273Z,5.33
2018-07-21T13:15:48.743Z,5.10
2018-07-21T13:18:18.592Z,6.35
2018-07-21T13:20:47.712Z,5.25
2018-07-21T13:23:17.333Z,5.40
2018-07-21T13:25:46.678Z,5.47
2018-07-21T13:28:21.209Z,5.60
2018-07-21T13:30:50.223Z,5.87
2018-07-21T13:33:21.129Z,5.70
2018-07-21T13:35:50.330Z,6.87
2018-07-21T13:38:19.483Z,23.18
2018-07-21T13:40:48.792Z,19.27
2018-07-21T13:43:17.931Z,8.30
2018-07-21T13:45:48.870Z,5.33
2018-07-21T13:48:18.805Z,7.00
2018-07-21T13:50:47.749Z,5.85
2018-07-21T13:53:17.023Z,13.72
2018-07-21T13:55:46.164Z,9.60
2018-07-21T13:58:15.267Z,5.50
2018-07-21T14:00:44.406Z,5.53
2018-07-21T14:03:13.852Z,5.83
2018-07-21T14:05:44.091Z,5.30
2018-07-21T14:08:13.472Z,5.72
2018-07-21T14:10:42.664Z,6.05
2018-07-21T14:13:13.089Z,5.83
2018-07-21T14:15:43.508Z,6.15
2018-07-21T14:18:13.350Z,5.70
2018-07-21T14:20:45.327Z,5.70
2018-07-21T14:23:14.757Z,5.62
2018-07-21T14:25:45.260Z,5.28
2018-07-21T14:28:15.839Z,6.30
2018-07-21T14:30:46.568Z,5.90
2018-07-21T14:33:17.430Z,5.70
2018-07-21T14:35:47.653Z,6.10
2018-07-21T14:38:17.278Z,5.70
2018-07-21T14:40:48.426Z,5.22
2018-07-21T14:43:20.178Z,5.30
2018-07-21T14:45:53.629Z,4.87
2018-07-21T14:48:27.285Z,5.80
2018-07-21T14:50:56.788Z,5.50
2018-07-21T14:53:26.203Z,5.55
2018-07-21T14:55:55.903Z,5.25
2018-07-21T14:58:26.183Z,4.35
2018-07-21T15:00:55.267Z,4.72
2018-07-21T15:03:24.182Z,5.85
2018-07-21T15:05:53.295Z,5.22
2018-07-21T15:08:22.588Z,4.60
2018-07-21T15:10:52.713Z,5.28
2018-07-21T15:13:23.325Z,5.55
2018-07-21T15:15:53.359Z,7.37
2018-07-21T15:18:26.853Z,7.33
2018-07-21T15:20:56.909Z,4.90
2018-07-21T15:23:26.219Z,5.37
2018-07-21T15:25:55.762Z,8.68
2018-07-21T15:28:25.729Z,5.60
2018-07-21T15:30:54.800Z,5.25
2018-07-21T15:33:24.207Z,7.75
2018-07-21T15:35:55.092Z,6.22
2018-07-21T15:38:24.232Z,7.00
2018-07-21T15:40:54.460Z,6.00
2018-07-21T15:43:23.788Z,4.95
2018-07-21T15:45:54.798Z,5.20
2018-07-21T15:48:24.599Z,5.37
2018-07-21T15:50:54.893Z,6.20
2018-07-21T15:53:25.310Z,10.05
2018-07-21T15:55:55.177Z,7.90
2018-07-21T15:58:24.481Z,7.62
2018-07-21T16:00:53.589Z,7.87
2018-07-21T16:03:23.764Z,7.50
2018-07-21T16:05:57.427Z,8.63
2018-07-21T16:08:28.180Z,8.75
2018-07-21T16:10:57.389Z,8.48
2018-07-21T16:13:26.797Z,8.05
2018-07-21T16:15:57.234Z,8.83
2018-07-21T16:18:27.617Z,8.98
2018-07-21T16:20:57.894Z,9.83
2018-07-21T16:23:26.992Z,8.95
2018-07-21T16:25:56.863Z,8.55
2018-07-21T16:28:26.313Z,8.40
2018-07-21T16:30:55.739Z,8.25
2018-07-21T16:33:24.713Z,8.33
2018-07-21T16:35:53.700Z,9.10
2018-07-21T16:38:22.577Z,9.20
2018-07-21T16:40:52.451Z,9.53
2018-07-21T16:43:24.465Z,9.40
2018-07-21T16:45:55.009Z,8.43
2018-07-21T16:48:24.773Z,10.43
2018-07-21T16:50:54.190Z,8.15
2018-07-21T16:53:26.066Z,9.53
2018-07-21T16:55:58.346Z,9.48
2018-07-21T16:58:29.608Z,8.48
2018-07-21T17:00:59.224Z,8.70
2018-07-21T17:03:28.493Z,9.15
2018-07-21T17:06:00.707Z,7.62
2018-07-21T17:08:31.018Z,6.92
2018-07-21T17:11:00.413Z,7.08
2018-07-21T17:13:30.772Z,7.00
2018-07-21T17:16:00.208Z,7.00
2018-07-21T17:18:31.606Z,6.80
2018-07-21T17:21:02.551Z,7.10
2018-07-21T17:23:31.736Z,6.70
2018-07-21T17:26:04.186Z,6.58
2018-07-21T17:28:33.791Z,6.33
2018-07-21T17:31:02.718Z,6.20
2018-07-21T17:33:32.135Z,6.40
2018-07-21T17:36:01.119Z,5.40
2018-07-21T17:38:30.101Z,6.08
2018-07-21T17:41:00.334Z,6.12
2018-07-21T17:43:32.597Z,5.47
2018-07-21T17:46:01.380Z,5.40
2018-07-21T17:48:31.716Z,5.12
2018-07-21T17:51:03.539Z,4.47
2018-07-21T17:53:36.852Z,4.72
2018-07-21T17:56:08.083Z,4.90
2018-07-21T17:58:38.441Z,5.22
2018-07-21T18:01:07.652Z,4.70
2018-07-21T18:03:37.876Z,4.50
2018-07-21T18:06:07.425Z,5.30
2018-07-21T18:08:36.269Z,5.00
2018-07-21T18:11:05.386Z,5.28
2018-07-21T18:13:37.177Z,5.35
2018-07-21T18:16:06.814Z,4.92
2018-07-21T18:18:37.192Z,5.33
2018-07-21T18:21:06.606Z,5.17
2018-07-21T18:23:36.871Z,4.75
2018-07-21T18:26:07.314Z,4.35
2018-07-21T18:28:37.416Z,5.58
2018-07-21T18:31:09.287Z,5.95
2018-07-21T18:33:39.318Z,6.50
2018-07-21T18:36:11.095Z,6.45
2018-07-21T18:38:42.931Z,7.47
2018-07-21T18:41:12.778Z,6.73
2018-07-21T18:43:42.626Z,4.92
2018-07-21T18:46:12.442Z,5.90
2018-07-21T18:48:41.856Z,6.93
2018-07-21T18:51:14.783Z,6.33
2018-07-21T18:53:43.894Z,5.95
2018-07-21T18:56:15.800Z,6.70
2018-07-21T18:58:48.982Z,7.22
2018-07-21T19:01:24.756Z,7.20
2018-07-21T19:03:56.891Z,6.62
2018-07-21T19:06:27.596Z,6.20
2018-07-21T19:09:02.522Z,8.00
2018-07-21T19:11:32.655Z,8.50
2018-07-21T19:14:05.457Z,7.93
2018-07-21T19:16:41.748Z,9.00
2018-07-21T19:19:16.455Z,11.43
2018-07-21T19:21:46.285Z,12.10
2018-07-21T19:24:15.836Z,10.10
2018-07-21T19:26:50.717Z,10.47
2018-07-21T19:29:27.447Z,11.77
2018-07-21T19:32:02.376Z,10.50
2018-07-21T19:34:37.865Z,10.63
2018-07-21T19:38:15.198Z,9.87
2018-07-21T19:40:45.465Z,11.37
2018-07-21T19:43:15.669Z,9.83
2018-07-21T19:45:45.597Z,8.10
2018-07-21T19:48:16.637Z,6.37
2018-07-21T19:50:51.496Z,7.13
2018-07-21T19:53:20.759Z,6.97
2018-07-21T19:55:50.207Z,6.27
2018-07-21T19:58:22.670Z,6.63
2018-07-21T20:00:53.754Z,6.40
2018-07-21T20:03:33.617Z,6.53
2018-07-21T20:06:03.183Z,6.47
2018-07-21T20:08:34.535Z,6.30
2018-07-21T20:11:05.278Z,7.33
2018-07-21T20:13:36.882Z,6.93
2018-07-21T20:16:10.483Z,8.07
2018-07-21T20:18:40.072Z,8.77
2018-07-21T20:21:09.656Z,7.77
2018-07-21T20:23:39.242Z,8.07
2018-07-21T20:26:10.004Z,8.37
2018-07-21T20:28:41.188Z,9.03
2018-07-21T20:31:11.337Z,8.30
2018-07-21T20:33:40.839Z,8.47
2018-07-21T20:36:10.353Z,8.63
2018-07-21T20:38:42.289Z,8.57
2018-07-21T20:41:12.766Z,8.53
2018-07-21T20:43:43.275Z,8.40
2018-07-21T20:46:14.573Z,8.80
2018-07-21T20:48:47.718Z,8.53
2018-07-21T20:51:19.605Z,7.90
2018-07-21T20:53:53.027Z,9.10
2018-07-21T20:56:23.099Z,9.57
2018-07-21T20:58:59.812Z,8.73
2018-07-21T21:01:30.166Z,9.17
2018-07-21T21:04:00.858Z,7.77
2018-07-21T21:06:32.739Z,9.43
2018-07-21T21:09:05.214Z,8.90
2018-07-21T21:11:35.673Z,9.43
2018-07-21T21:14:05.646Z,9.90
2018-07-21T21:16:42.406Z,8.07
2018-07-21T21:19:11.788Z,8.70
2018-07-21T21:21:41.459Z,9.70
2018-07-21T21:24:10.817Z,13.10
2018-07-21T21:26:40.657Z,8.90
2018-07-21T21:29:09.995Z,8.70
2018-07-21T21:31:41.311Z,8.97
2018-07-21T21:34:15.337Z,9.83
2018-07-21T21:36:44.797Z,9.60
2018-07-21T21:39:16.522Z,9.90
2018-07-21T21:41:46.861Z,10.50
2018-07-21T21:44:16.658Z,9.87
2018-07-21T21:46:46.438Z,9.73
2018-07-21T21:49:16.827Z,9.83
2018-07-21T21:51:53.261Z,9.87
2018-07-21T21:54:24.069Z,9.47
2018-07-21T21:56:54.754Z,10.30
2018-07-21T21:59:23.977Z,9.53
2018-07-21T22:01:53.138Z,9.97
2018-07-21T22:04:23.731Z,9.67
2018-07-21T22:06:53.023Z,9.80
2018-07-21T22:09:23.093Z,10.23
2018-07-21T22:11:53.000Z,10.97
2018-07-21T22:14:25.680Z,10.77
2018-07-21T22:16:54.707Z,10.63
2018-07-21T22:19:24.482Z,10.97
2018-07-21T22:21:54.583Z,10.30
2018-07-21T22:24:25.743Z,10.57
2018-07-21T22:26:55.256Z,11.13
2018-07-21T22:29:24.489Z,10.50
2018-07-21T22:31:53.314Z,10.47
2018-07-21T22:34:22.284Z,10.00
2018-07-21T22:36:51.395Z,11.73
2018-07-21T22:39:20.582Z,10.67
2018-07-21T22:41:55.082Z,12.03
2018-07-21T22:44:24.387Z,12.70
2018-07-21T22:46:53.614Z,13.87
2018-07-21T22:49:22.838Z,12.50
2018-07-21T22:51:52.147Z,13.03
2018-07-21T22:54:22.771Z,13.20
2018-07-21T22:56:52.016Z,12.67
2018-07-21T22:59:21.297Z,13.57
2018-07-21T23:01:50.587Z,13.53
2018-07-21T23:04:20.137Z,12.27
2018-07-21T23:06:50.178Z,12.37
2018-07-21T23:09:21.217Z,11.83
2018-07-21T23:11:50.410Z,12.77
2018-07-21T23:14:20.380Z,11.83
2018-07-21T23:16:51.297Z,12.23
2018-07-21T23:19:21.577Z,11.23
2018-07-21T23:21:50.751Z,12.00
2018-07-21T23:24:20.377Z,11.20
2018-07-21T23:26:49.407Z,11.47
2018-07-21T23:29:20.968Z,12.33
2018-07-21T23:31:52.228Z,13.80
2018-07-21T23:34:21.580Z,12.97
2018-07-21T23:36:50.637Z,13.33
2018-07-21T23:39:21.236Z,15.60
2018-07-21T23:41:50.793Z,13.00
2018-07-21T23:44:20.275Z,14.40
2018-07-21T23:46:50.488Z,14.10
2018-07-21T23:49:19.791Z,14.33
2018-07-21T23:51:51.510Z,16.03
2018-07-21T23:54:23.137Z,14.50
2018-07-21T23:56:52.912Z,14.67
2018-07-21T23:59:22.061Z,13.17
